Time;durP1;ratioP1;P1;durP2;ratioP2;P2;SDS_P1;SDS_P2;PMS_P1;PMS_P2;Temp;Humidity;BMP_temperature;BMP_pressure;BME280_temperature;BME280_humidity;BME280_pressure;Samples;Min_cycle;Max_cycle;Signal;HPM_P1;HPM_P2
2021/08/23 00:01:56;;;;;;;5.05;4.65;;;;;23.40;101776.00;;;;5051068;28;20231;-78
2021/08/23 00:04:23;;;;;;;4.78;4.28;;;;;23.40;101775.00;;;;5050565;28;20204;-78
2021/08/23 00:06:51;;;;;;;5.07;4.55;;;;;23.40;101783.00;;;;5050440;28;20218;-78
2021/08/23 00:09:20;;;;;;;4.47;3.58;;;;;23.40;101788.00;;;;5051114;28;20203;-77
2021/08/23 00:11:47;;;;;;;4.22;3.83;;;;;23.40;101790.00;;;;5050171;28;20666;-78
2021/08/23 00:14:15;;;;;;;4.93;4.25;;;;;23.40;101798.00;;;;5050584;28;20208;-78
2021/08/23 00:16:43;;;;;;;3.70;3.33;;;;;23.40;101796.00;;;;5050999;28;20215;-78
2021/08/23 00:19:10;;;;;;;4.15;3.45;;;;;23.40;101792.00;;;;5049850;28;20207;-77
2021/08/23 00:21:42;;;;;;;5.40;3.05;;;;;23.40;101796.00;;;;5048482;28;20628;-78
2021/08/23 00:24:21;;;;;;;4.97;3.20;;;;;23.40;101793.00;;;;5050298;28;20204;-79
2021/08/23 00:26:49;;;;;;;3.55;3.25;;;;;23.40;101804.00;;;;5049679;28;20570;-78
2021/08/23 00:29:18;;;;;;;4.78;3.22;;;;;23.40;101810.00;;;;5050137;28;20299;-78
2021/08/23 00:31:45;;;;;;;4.30;3.75;;;;;23.40;101807.00;;;;5050456;28;20200;-78
2021/08/23 00:34:13;;;;;;;3.33;3.03;;;;;23.40;101810.00;;;;5059893;28;20702;-80
2021/08/23 00:36:40;;;;;;;3.83;3.30;;;;;23.30;101811.00;;;;5069490;28;20697;-79
2021/08/23 00:39:08;;;;;;;4.07;3.50;;;;;23.30;101815.00;;;;5069837;28;20636;-78
2021/08/23 00:41:37;;;;;;;6.35;3.63;;;;;23.40;101815.00;;;;5069561;28;20227;-78
2021/08/23 00:44:05;;;;;;;4.40;4.00;;;;;23.40;101813.00;;;;5069618;28;20223;-79
2021/08/23 00:46:34;;;;;;;3.65;3.28;;;;;23.30;101823.00;;;;5069405;28;20194;-79
2021/08/23 00:49:03;;;;;;;3.92;3.25;;;;;23.40;101829.00;;;;5069023;28;20553;-78
2021/08/23 00:51:30;;;;;;;3.78;3.40;;;;;23.40;101826.00;;;;5068294;28;20214;-79
2021/08/23 00:53:57;;;;;;;7.30;3.08;;;;;23.40;101830.00;;;;5068851;28;20665;-79
2021/08/23 00:56:25;;;;;;;4.13;3.72;;;;;23.40;101838.00;;;;5069124;28;20204;-77
2021/08/23 00:58:52;;;;;;;3.85;3.45;;;;;23.40;101838.00;;;;5069393;28;20206;-78
2021/08/23 01:01:26;;;;;;;8.73;3.55;;;;;23.40;101844.00;;;;5068923;28;20226;-78
2021/08/23 01:03:59;;;;;;;3.53;3.20;;;;;23.40;101847.00;;;;5069336;28;20289;-79
2021/08/23 01:06:28;;;;;;;3.58;3.28;;;;;23.40;101846.00;;;;5065063;28;20684;-79
2021/08/23 01:08:58;;;;;;;3.90;3.60;;;;;23.40;101852.00;;;;5052161;28;20203;-78
2021/08/23 01:11:30;;;;;;;4.72;3.75;;;;;23.40;101851.00;;;;5049372;28;20208;-79
2021/08/23 01:13:57;;;;;;;4.43;4.00;;;;;23.40;101852.00;;;;5048963;28;20199;-78
2021/08/23 01:16:24;;;;;;;4.45;3.78;;;;;23.40;101861.00;;;;5048414;28;20209;-78
2021/08/23 01:18:51;;;;;;;4.18;3.78;;;;;23.40;101859.00;;;;5048835;28;20199;-78
2021/08/23 01:21:23;;;;;;;5.00;4.53;;;;;23.30;101870.00;;;;5049094;28;20310;-78
2021/08/23 01:23:53;;;;;;;5.63;4.50;;;;;23.30;101869.00;;;;5048756;28;20696;-79
2021/08/23 01:26:24;;;;;;;6.25;4.78;;;;;23.40;101871.00;;;;5049647;28;20554;-78
2021/08/23 01:28:59;;;;;;;6.13;4.75;;;;;23.30;101875.00;;;;5048153;28;20235;-79
2021/08/23 01:31:35;;;;;;;6.68;5.35;;;;;23.30;101877.00;;;;5048793;28;20210;-78
2021/08/23 01:34:05;;;;;;;7.65;5.45;;;;;23.30;101877.00;;;;5048957;28;20215;-79
2021/08/23 01:36:32;;;;;;;7.30;5.47;;;;;23.30;101880.00;;;;5047962;28;20211;-79
2021/08/23 01:39:00;;;;;;;6.35;5.72;;;;;23.30;101885.00;;;;5047967;28;20207;-79
2021/08/23 01:41:27;;;;;;;6.97;5.45;;;;;23.30;101885.00;;;;5049353;28;20227;-79
2021/08/23 01:43:55;;;;;;;6.60;5.90;;;;;23.40;101879.00;;;;5048631;28;20222;-79
2021/08/23 01:46:22;;;;;;;7.15;5.47;;;;;23.40;101887.00;;;;5048405;28;20208;-78
2021/08/23 01:48:50;;;;;;;7.10;6.13;;;;;23.40;101893.00;;;;5048794;28;20203;-79
2021/08/23 01:51:18;;;;;;;7.75;5.93;;;;;23.40;101892.00;;;;5048378;28;20206;-79
2021/08/23 01:53:45;;;;;;;7.97;6.22;;;;;23.40;101895.00;;;;5048751;28;20199;-79
2021/08/23 01:56:13;;;;;;;7.75;6.78;;;;;23.40;101897.00;;;;5048099;28;20215;-79
2021/08/23 01:58:40;;;;;;;7.00;6.18;;;;;23.40;101900.00;;;;5049548;28;20203;-78
2021/08/23 02:01:07;;;;;;;9.10;7.72;;;;;23.40;101899.00;;;;5048266;28;20202;-78
2021/08/23 02:03:34;;;;;;;10.02;7.88;;;;;23.40;101908.00;;;;5049118;28;20204;-77
2021/08/23 02:06:01;;;;;;;9.35;7.63;;;;;23.30;101907.00;;;;5051738;28;20195;-78
2021/08/23 02:08:30;;;;;;;8.48;7.22;;;;;23.30;101907.00;;;;5068573;28;20233;-78
2021/08/23 02:10:57;;;;;;;9.40;6.93;;;;;23.30;101917.00;;;;5069398;28;20199;-78
2021/08/23 02:13:24;;;;;;;8.85;6.78;;;;;23.30;101909.00;;;;5069101;28;20203;-77
2021/08/23 02:15:51;;;;;;;9.85;7.47;;;;;23.20;101913.00;;;;5061261;28;20207;-79
2021/08/23 02:18:19;;;;;;;9.82;7.25;;;;;23.20;101923.00;;;;5048078;28;20199;-78
2021/08/23 02:20:46;;;;;;;9.93;8.05;;;;;23.20;101915.00;;;;5048850;28;20207;-78
2021/08/23 02:23:13;;;;;;;8.38;6.47;;;;;23.20;101919.00;;;;5048400;28;20231;-78
2021/08/23 02:25:42;;;;;;;8.98;7.35;;;;;23.20;101919.00;;;;5048120;28;20198;-77
2021/08/23 02:28:09;;;;;;;10.27;7.40;;;;;23.20;101919.00;;;;5047717;28;20199;-76
2021/08/23 02:30:39;;;;;;;9.60;6.50;;;;;23.20;101923.00;;;;5048105;28;20203;-78
2021/08/23 02:33:06;;;;;;;6.93;5.97;;;;;23.20;101929.00;;;;5048458;28;20203;-78
2021/08/23 02:35:33;;;;;;;8.75;6.97;;;;;23.20;101924.00;;;;5048523;28;20199;-77
2021/08/23 02:38:00;;;;;;;12.05;8.23;;;;;23.20;101933.00;;;;5047355;28;20231;-77
2021/08/23 02:40:28;;;;;;;10.73;8.82;;;;;23.20;101936.00;;;;5047980;28;20218;-78
2021/08/23 02:42:56;;;;;;;10.93;8.13;;;;;23.20;101948.00;;;;5048153;28;20227;-78
2021/08/23 02:45:23;;;;;;;10.57;8.43;;;;;23.20;101943.00;;;;5047489;28;20345;-78
2021/08/23 02:47:51;;;;;;;12.02;8.27;;;;;23.20;101942.00;;;;5048008;28;20207;-78
2021/08/23 02:50:18;;;;;;;12.55;8.68;;;;;23.20;101948.00;;;;5049860;28;20740;-78
2021/08/23 02:52:45;;;;;;;10.93;8.93;;;;;23.10;101946.00;;;;5051969;28;20211;-78
2021/08/23 02:55:13;;;;;;;10.38;7.97;;;;;23.10;101949.00;;;;5051338;28;20215;-78
2021/08/23 02:57:40;;;;;;;11.40;8.82;;;;;23.10;101949.00;;;;5051498;28;20577;-78
2021/08/23 03:00:10;;;;;;;13.88;8.80;;;;;23.00;101955.00;;;;5051242;28;20244;-78
2021/08/23 03:02:38;;;;;;;9.63;7.97;;;;;23.00;101954.00;;;;5051850;28;20226;-78
2021/08/23 03:05:05;;;;;;;10.60;7.60;;;;;23.00;101958.00;;;;5051399;28;20203;-78
2021/08/23 03:07:33;;;;;;;11.40;8.57;;;;;23.00;101968.00;;;;5061978;28;20608;-79
2021/08/23 03:10:00;;;;;;;10.95;7.65;;;;;23.00;101967.00;;;;5051840;28;20211;-78
2021/08/23 03:12:27;;;;;;;12.10;8.07;;;;;23.00;101964.00;;;;5051095;28;20203;-76
2021/08/23 03:14:54;;;;;;;11.60;8.27;;;;;23.00;101974.00;;;;5051893;28;20225;-78
2021/08/23 03:17:23;;;;;;;13.05;8.45;;;;;22.90;101980.00;;;;5051280;28;20203;-77
2021/08/23 03:19:50;;;;;;;11.75;7.97;;;;;22.90;101983.00;;;;5051622;28;20684;-78
2021/08/23 03:22:17;;;;;;;9.18;7.25;;;;;22.90;101981.00;;;;5050973;28;20226;-78
2021/08/23 03:24:44;;;;;;;9.90;6.90;;;;;22.90;101988.00;;;;5066810;28;20293;-78
2021/08/23 03:27:12;;;;;;;10.85;7.72;;;;;22.90;101987.00;;;;5071330;28;20206;-78
2021/08/23 03:29:39;;;;;;;8.95;7.38;;;;;22.90;101992.00;;;;5072056;28;20199;-78
2021/08/23 03:32:07;;;;;;;11.07;7.32;;;;;22.90;101999.00;;;;5071622;28;20203;-78
2021/08/23 03:34:36;;;;;;;8.95;7.30;;;;;22.80;101993.00;;;;5071926;28;20603;-78
2021/08/23 03:37:03;;;;;;;8.95;6.20;;;;;22.80;102008.00;;;;5070688;28;20704;-78
2021/08/23 03:39:31;;;;;;;8.10;6.72;;;;;22.80;102000.00;;;;5071430;28;20209;-79
2021/08/23 03:41:58;;;;;;;9.13;7.38;;;;;22.80;102006.00;;;;5070333;28;20713;-77
2021/08/23 03:44:25;;;;;;;8.10;6.47;;;;;22.80;102011.00;;;;5070848;28;20222;-77
2021/08/23 03:46:53;;;;;;;9.30;6.93;;;;;22.70;102005.00;;;;5071222;28;20669;-78
2021/08/23 03:49:21;;;;;;;11.15;6.68;;;;;22.70;102012.00;;;;5069956;28;20203;-78
2021/08/23 03:51:50;;;;;;;10.43;7.30;;;;;22.70;102009.00;;;;5071296;28;20202;-78
2021/08/23 03:54:17;;;;;;;10.10;7.20;;;;;22.70;102014.00;;;;5071230;28;20209;-77
2021/08/23 03:56:44;;;;;;;9.45;7.53;;;;;22.70;102019.00;;;;5071410;28;20217;-76
2021/08/23 03:59:11;;;;;;;8.25;7.03;;;;;22.70;102022.00;;;;5069992;28;20207;-77
2021/08/23 04:01:39;;;;;;;8.07;6.63;;;;;22.70;102027.00;;;;5069886;28;20206;-78
2021/08/23 04:04:06;;;;;;;10.20;6.70;;;;;22.70;102021.00;;;;5070926;28;20210;-78
2021/08/23 04:06:33;;;;;;;8.77;6.25;;;;;22.70;102025.00;;;;5064853;28;20206;-78
2021/08/23 04:09:02;;;;;;;9.88;6.53;;;;;22.60;102027.00;;;;5070913;28;20187;-78
2021/08/23 04:11:29;;;;;;;10.85;6.55;;;;;22.70;102029.00;;;;5070278;28;20202;-77
2021/08/23 04:13:56;;;;;;;6.43;5.82;;;;;22.60;102023.00;;;;5070065;28;20670;-78
2021/08/23 04:16:23;;;;;;;7.22;6.07;;;;;22.60;102030.00;;;;5050643;28;20213;-79
2021/08/23 04:18:50;;;;;;;7.03;5.53;;;;;22.60;102037.00;;;;5050535;28;20196;-77
2021/08/23 04:21:18;;;;;;;6.72;6.03;;;;;22.60;102039.00;;;;5050171;28;20206;-79
2021/08/23 04:23:45;;;;;;;7.93;5.40;;;;;22.60;102039.00;;;;5050861;28;20238;-78
2021/08/23 04:26:13;;;;;;;5.80;5.18;;;;;22.50;102043.00;;;;5050534;28;20680;-78
2021/08/23 04:28:40;;;;;;;6.65;4.90;;;;;22.50;102051.00;;;;5050718;28;20210;-78
2021/08/23 04:31:08;;;;;;;6.72;5.20;;;;;22.50;102053.00;;;;5051023;28;20207;-77
2021/08/23 04:33:35;;;;;;;6.70;5.35;;;;;22.50;102060.00;;;;5050394;28;20206;-77
2021/08/23 04:36:02;;;;;;;7.72;5.65;;;;;22.50;102069.00;;;;5050100;28;20669;-77
2021/08/23 04:38:29;;;;;;;8.70;5.13;;;;;22.40;102061.00;;;;5049744;28;20231;-77
2021/08/23 04:40:57;;;;;;;6.97;5.93;;;;;22.40;102074.00;;;;5050606;28;20226;-78
2021/08/23 04:43:25;;;;;;;5.78;5.05;;;;;22.40;102083.00;;;;5049554;28;20219;-77
2021/08/23 04:45:52;;;;;;;7.25;5.68;;;;;22.40;102078.00;;;;5049560;28;20226;-79
2021/08/23 04:48:19;;;;;;;6.47;5.53;;;;;22.40;102086.00;;;;5049971;28;20294;-78
2021/08/23 04:50:47;;;;;;;8.85;5.95;;;;;22.40;102081.00;;;;5049101;28;20211;-78
2021/08/23 04:53:14;;;;;;;6.65;5.50;;;;;22.40;102085.00;;;;5049340;28;20207;-78
2021/08/23 04:55:41;;;;;;;6.95;5.57;;;;;22.40;102080.00;;;;5049857;28;20214;-78
2021/08/23 04:58:08;;;;;;;7.43;5.50;;;;;22.40;102087.00;;;;5049234;28;20204;-78
2021/08/23 05:00:37;;;;;;;8.90;5.47;;;;;22.40;102093.00;;;;5049434;28;20204;-78
2021/08/23 05:03:06;;;;;;;6.72;5.50;;;;;22.40;102091.00;;;;5049158;28;20826;-77
2021/08/23 05:05:33;;;;;;;10.80;6.05;;;;;22.40;102099.00;;;;5049814;28;20302;-78
2021/08/23 05:08:00;;;;;;;7.95;5.35;;;;;22.40;102108.00;;;;5066210;28;20206;-78
2021/08/23 05:10:27;;;;;;;8.55;5.25;;;;;22.40;102101.00;;;;5069347;28;20222;-77
2021/08/23 05:12:56;;;;;;;8.13;5.40;;;;;22.40;102111.00;;;;5069517;28;20211;-78
2021/08/23 05:15:23;;;;;;;8.35;4.72;;;;;22.40;102111.00;;;;5068774;28;20199;-79
2021/08/23 05:17:52;;;;;;;5.90;5.15;;;;;22.40;102113.00;;;;5069165;28;20293;-78
2021/08/23 05:20:20;;;;;;;6.82;4.82;;;;;22.40;102109.00;;;;5069171;28;20203;-79
2021/08/23 05:22:47;;;;;;;5.35;4.55;;;;;22.40;102121.00;;;;5061723;28;20293;-78
2021/08/23 05:25:15;;;;;;;6.45;4.60;;;;;22.40;102127.00;;;;5048632;28;20203;-78
2021/08/23 05:27:42;;;;;;;7.10;5.00;;;;;22.40;102127.00;;;;5049149;28;20200;-79
2021/08/23 05:30:10;;;;;;;5.25;4.22;;;;;22.40;102132.00;;;;5048743;28;20607;-78
2021/08/23 05:32:38;;;;;;;8.20;4.57;;;;;22.40;102137.00;;;;5049175;28;20204;-78
2021/08/23 05:35:08;;;;;;;8.63;4.13;;;;;22.40;102139.00;;;;5048402;28;20196;-79
2021/08/23 05:37:35;;;;;;;5.40;3.83;;;;;22.40;102141.00;;;;5049238;28;20709;-78
2021/08/23 05:40:03;;;;;;;12.35;4.15;;;;;22.40;102143.00;;;;5058466;28;20199;-77
2021/08/23 05:42:30;;;;;;;5.05;3.47;;;;;22.50;102147.00;;;;5068987;28;20234;-77
2021/08/23 05:44:57;;;;;;;3.72;2.88;;;;;22.40;102153.00;;;;5068703;28;20210;-79
2021/08/23 05:47:25;;;;;;;4.10;3.05;;;;;22.40;102154.00;;;;5069052;28;20194;-77
2021/08/23 05:49:52;;;;;;;5.72;2.95;;;;;22.40;102151.00;;;;5068822;28;20199;-78
2021/08/23 05:52:21;;;;;;;7.15;3.00;;;;;22.40;102160.00;;;;5068932;28;20203;-78
2021/08/23 05:54:48;;;;;;;4.15;2.88;;;;;22.40;102159.00;;;;5069363;28;20210;-77
2021/08/23 05:57:15;;;;;;;4.30;2.60;;;;;22.40;102154.00;;;;5067855;28;20574;-79
2021/08/23 05:59:42;;;;;;;6.07;2.50;;;;;22.40;102163.00;;;;5068807;28;20576;-78
2021/08/23 06:02:10;;;;;;;3.22;2.15;;;;;22.40;102163.00;;;;5068571;28;20206;-78
2021/08/23 06:04:37;;;;;;;5.53;2.58;;;;;22.40;102166.00;;;;5069007;28;20206;-78
2021/08/23 06:07:07;;;;;;;2.90;2.05;;;;;22.40;102166.00;;;;5054357;28;20202;-79
2021/08/23 06:09:37;;;;;;;4.50;2.50;;;;;22.40;102164.00;;;;5055874;28;20285;-78
2021/08/23 06:12:04;;;;;;;3.55;2.40;;;;;22.40;102171.00;;;;5048565;28;20210;-78
2021/08/23 06:14:32;;;;;;;3.15;2.00;;;;;22.40;102171.00;;;;5061364;28;20652;-79
2021/08/23 06:16:59;;;;;;;2.30;2.10;;;;;22.50;102171.00;;;;5068691;28;20572;-78
2021/08/23 06:19:26;;;;;;;3.75;2.50;;;;;22.50;102169.00;;;;5068530;28;20199;-78
2021/08/23 06:21:53;;;;;;;5.63;2.38;;;;;22.50;102173.00;;;;5068617;28;20568;-79
2021/08/23 06:24:22;;;;;;;3.83;2.40;;;;;22.50;102177.00;;;;5068549;28;20218;-77
2021/08/23 06:26:50;;;;;;;5.88;2.50;;;;;22.50;102184.00;;;;5072604;28;20711;-79
2021/08/23 06:29:18;;;;;;;8.90;2.40;;;;;22.50;102191.00;;;;5072715;28;20205;-78
2021/08/23 06:31:45;;;;;;;3.65;2.53;;;;;22.60;102189.00;;;;5071883;28;20206;-79
2021/08/23 06:34:12;;;;;;;3.05;2.55;;;;;22.60;102197.00;;;;5072355;28;20202;-79
2021/08/23 06:36:41;;;;;;;4.07;2.38;;;;;22.60;102192.00;;;;5072426;28;20233;-78
2021/08/23 06:39:09;;;;;;;5.32;2.45;;;;;22.70;102198.00;;;;5072120;28;20268;-79
2021/08/23 06:41:36;;;;;;;4.03;2.15;;;;;22.70;102197.00;;;;5072695;28;20202;-79
2021/08/23 06:44:05;;;;;;;2.72;2.25;;;;;22.70;102196.00;;;;5072390;28;20234;-78
2021/08/23 06:46:33;;;;;;;4.13;2.40;;;;;22.70;102198.00;;;;5071805;28;20199;-77
2021/08/23 06:49:01;;;;;;;4.00;2.80;;;;;22.70;102203.00;;;;5071796;28;20214;-79
2021/08/23 06:51:28;;;;;;;4.07;2.38;;;;;22.70;102206.00;;;;5071775;28;20673;-78
2021/08/23 06:53:56;;;;;;;3.78;2.67;;;;;22.70;102206.00;;;;5071929;28;20206;-77
2021/08/23 06:56:23;;;;;;;4.13;2.38;;;;;22.70;102204.00;;;;5072229;28;20202;-78
2021/08/23 06:58:50;;;;;;;5.55;2.28;;;;;22.80;102196.00;;;;5072262;28;20209;-79
2021/08/23 07:01:19;;;;;;;6.00;2.38;;;;;22.80;102202.00;;;;5071617;28;20203;-78
2021/08/23 07:03:48;;;;;;;3.95;2.45;;;;;22.80;102207.00;;;;5072311;28;20230;-79
2021/08/23 07:06:15;;;;;;;4.28;2.30;;;;;22.80;102207.00;;;;5062592;28;20199;-78
2021/08/23 07:08:42;;;;;;;4.45;2.60;;;;;22.80;102203.00;;;;5051998;28;20203;-78
2021/08/23 07:11:11;;;;;;;4.05;2.55;;;;;22.90;102214.00;;;;5051308;28;20204;-78
2021/08/23 07:13:38;;;;;;;6.10;2.00;;;;;22.90;102214.00;;;;5051884;28;20698;-78
2021/08/23 07:16:06;;;;;;;3.28;1.95;;;;;22.90;102213.00;;;;5051289;28;20191;-78
2021/08/23 07:18:35;;;;;;;6.97;2.10;;;;;22.90;102222.00;;;;5051516;28;20223;-78
2021/08/23 07:21:02;;;;;;;3.13;1.95;;;;;22.90;102219.00;;;;5052158;28;20200;-78
2021/08/23 07:23:30;;;;;;;3.63;1.80;;;;;23.00;102216.00;;;;5070857;28;20222;-79
2021/08/23 07:25:57;;;;;;;2.97;1.65;;;;;23.00;102225.00;;;;5071525;28;20199;-79
2021/08/23 07:28:25;;;;;;;2.40;1.98;;;;;23.10;102225.00;;;;5070674;28;20714;-78
2021/08/23 07:30:52;;;;;;;3.05;1.70;;;;;23.10;102223.00;;;;5071029;28;20195;-77
2021/08/23 07:33:19;;;;;;;2.30;1.60;;;;;23.10;102229.00;;;;5071242;28;20202;-77
2021/08/23 07:35:48;;;;;;;1.95;1.60;;;;;23.10;102237.00;;;;5070686;28;20199;-78
2021/08/23 07:38:15;;;;;;;3.75;2.00;;;;;23.20;102237.00;;;;5068803;28;20254;-78
2021/08/23 07:40:42;;;;;;;1.92;1.70;;;;;23.20;102243.00;;;;5071082;28;20210;-77
2021/08/23 07:43:09;;;;;;;3.90;1.90;;;;;23.20;102245.00;;;;5070493;28;20233;-77
2021/08/23 07:45:38;;;;;;;6.20;1.60;;;;;23.30;102242.00;;;;5070661;28;20218;-78
2021/08/23 07:48:06;;;;;;;3.63;1.52;;;;;23.30;102239.00;;;;5070486;28;20199;-78
2021/08/23 07:50:33;;;;;;;4.70;1.40;;;;;23.30;102243.00;;;;5070408;28;20203;-78
2021/08/23 07:53:03;;;;;;;6.80;1.65;;;;;23.40;102244.00;;;;5070157;28;20199;-77
2021/08/23 07:55:31;;;;;;;4.65;1.50;;;;;23.40;102240.00;;;;5069550;28;20203;-78
2021/08/23 07:57:58;;;;;;;2.42;1.40;;;;;23.50;102241.00;;;;5070431;28;20226;-78
2021/08/23 08:00:25;;;;;;;4.88;1.42;;;;;23.50;102242.00;;;;5070192;28;20207;-78
2021/08/23 08:02:53;;;;;;;2.63;1.45;;;;;23.50;102245.00;;;;5071016;28;20214;-78
2021/08/23 08:05:20;;;;;;;2.88;1.30;;;;;23.50;102244.00;;;;5057912;28;20204;-78
2021/08/23 08:07:48;;;;;;;4.20;1.33;;;;;23.60;102254.00;;;;5063121;28;20534;-78
2021/08/23 08:10:17;;;;;;;4.20;1.40;;;;;23.60;102254.00;;;;5070284;28;20212;-78
2021/08/23 08:12:44;;;;;;;3.17;1.35;;;;;23.60;102250.00;;;;5063475;28;20203;-78
2021/08/23 08:15:12;;;;;;;3.17;1.50;;;;;23.60;102250.00;;;;5049364;28;20294;-78
2021/08/23 08:17:40;;;;;;;4.70;1.75;;;;;23.60;102257.00;;;;5050455;28;20204;-77
2021/08/23 08:20:09;;;;;;;2.22;1.23;;;;;23.60;102256.00;;;;5050498;28;20227;-78
2021/08/23 08:22:36;;;;;;;2.92;1.30;;;;;23.60;102259.00;;;;5050760;28;20234;-78
2021/08/23 08:25:05;;;;;;;2.25;1.17;;;;;23.70;102258.00;;;;5050125;28;20231;-78
2021/08/23 08:27:34;;;;;;;1.92;1.00;;;;;23.80;102265.00;;;;5050797;28;20203;-79
2021/08/23 08:30:01;;;;;;;2.45;1.20;;;;;23.90;102266.00;;;;5050757;28;20594;-78
2021/08/23 08:32:28;;;;;;;3.58;1.40;;;;;24.00;102266.00;;;;5050205;28;20203;-76
2021/08/23 08:34:55;;;;;;;4.40;1.67;;;;;24.10;102267.00;;;;5050150;28;20195;-77
2021/08/23 08:37:23;;;;;;;2.97;1.40;;;;;24.20;102267.00;;;;5049888;28;20247;-78
2021/08/23 08:39:50;;;;;;;4.20;1.35;;;;;24.30;102274.00;;;;5050346;28;20199;-78
2021/08/23 08:42:18;;;;;;;4.80;1.35;;;;;24.30;102281.00;;;;5050178;28;20387;-78
2021/08/23 08:44:47;;;;;;;2.55;1.10;;;;;24.30;102278.00;;;;5050522;28;20231;-78
2021/08/23 08:47:17;;;;;;;2.15;1.30;;;;;24.30;102279.00;;;;5059958;28;20214;-77
2021/08/23 08:49:46;;;;;;;2.85;1.20;;;;;24.40;102276.00;;;;5070039;28;20657;-77
2021/08/23 08:52:14;;;;;;;1.90;1.20;;;;;24.50;102271.00;;;;5070018;28;20203;-79
2021/08/23 08:54:43;;;;;;;3.75;1.33;;;;;24.60;102279.00;;;;5070421;28;20202;-78
2021/08/23 08:57:10;;;;;;;1.63;0.82;;;;;24.70;102283.00;;;;5069647;28;20598;-78
2021/08/23 08:59:37;;;;;;;3.58;1.35;;;;;24.80;102287.00;;;;5069930;28;20194;-77
2021/08/23 09:02:06;;;;;;;2.05;0.98;;;;;24.90;102287.00;;;;5069751;28;20199;-78
2021/08/23 09:04:36;;;;;;;1.77;1.00;;;;;25.10;102285.00;;;;5055116;28;20230;-78
2021/08/23 09:07:04;;;;;;;2.33;1.23;;;;;25.20;102291.00;;;;5052975;28;20229;-78
2021/08/23 09:09:32;;;;;;;1.65;1.10;;;;;25.30;102286.00;;;;5058996;28;20203;-78
2021/08/23 09:12:02;;;;;;;1.67;1.20;;;;;25.50;102295.00;;;;5068864;28;20671;-78
2021/08/23 09:14:30;;;;;;;3.85;1.50;;;;;25.60;102287.00;;;;5068962;28;20207;-78
2021/08/23 09:17:06;;;;;;;1.92;1.15;;;;;25.70;102290.00;;;;5068811;28;20696;-78
2021/08/23 09:19:34;;;;;;;3.28;1.25;;;;;25.90;102294.00;;;;5068403;28;20202;-78
2021/08/23 09:22:04;;;;;;;2.15;1.30;;;;;26.10;102297.00;;;;5051172;28;20265;-77
2021/08/23 09:24:33;;;;;;;3.38;1.08;;;;;26.20;102295.00;;;;5048461;28;20322;-78
2021/08/23 09:27:06;;;;;;;2.55;0.90;;;;;26.30;102295.00;;;;5048358;28;20199;-78
2021/08/23 09:29:55;;;;;;;1.88;0.82;;;;;26.40;102302.00;;;;5048327;28;20199;-78
2021/08/23 09:32:25;;;;;;;2.17;1.13;;;;;26.50;102304.00;;;;5048714;28;20238;-78
2021/08/23 09:34:53;;;;;;;1.00;0.80;;;;;26.70;102301.00;;;;5048885;28;20208;-78
2021/08/23 09:37:22;;;;;;;2.78;0.95;;;;;26.80;102314.00;;;;5048686;28;20285;-77
2021/08/23 09:39:50;;;;;;;2.15;1.05;;;;;27.00;102310.00;;;;5048600;28;20212;-78
2021/08/23 09:42:21;;;;;;;2.88;1.25;;;;;27.00;102319.00;;;;5048347;28;20195;-78
2021/08/23 09:44:48;;;;;;;2.22;1.23;;;;;27.10;102313.00;;;;5048149;28;20625;-79
2021/08/23 09:47:16;;;;;;;2.28;1.25;;;;;27.20;102317.00;;;;5048015;28;20203;-78
2021/08/23 09:49:46;;;;;;;1.98;0.77;;;;;27.20;102313.00;;;;5048518;28;20298;-78
2021/08/23 09:52:21;;;;;;;1.30;0.80;;;;;27.30;102317.00;;;;5048779;28;20207;-78
2021/08/23 09:54:59;;;;;;;3.28;1.50;;;;;27.30;102310.00;;;;5049629;28;20230;-79
2021/08/23 09:57:27;;;;;;;4.20;0.90;;;;;27.40;102323.00;;;;5048437;28;20202;-78
2021/08/23 09:59:56;;;;;;;1.33;0.85;;;;;27.50;102316.00;;;;5048182;28;20204;-78
2021/08/23 10:02:26;;;;;;;2.20;0.98;;;;;27.50;102318.00;;;;5048793;28;20199;-79
2021/08/23 10:04:57;;;;;;;3.45;1.08;;;;;27.60;102315.00;;;;5048813;28;20231;-79
2021/08/23 10:07:27;;;;;;;2.58;1.50;;;;;27.70;102312.00;;;;5056821;28;20199;-77
2021/08/23 10:09:55;;;;;;;2.33;1.05;;;;;27.70;102314.00;;;;5068099;28;20199;-79
2021/08/23 10:12:22;;;;;;;2.17;0.80;;;;;27.80;102319.00;;;;5067284;28;20206;-79
2021/08/23 10:14:50;;;;;;;5.20;1.10;;;;;27.80;102315.00;;;;5068900;28;20207;-78
2021/08/23 10:17:18;;;;;;;1.23;0.77;;;;;27.90;102320.00;;;;5068890;28;20668;-78
2021/08/23 10:19:46;;;;;;;1.00;0.70;;;;;27.90;102318.00;;;;5068319;28;20217;-78
2021/08/23 10:22:15;;;;;;;2.10;1.02;;;;;27.80;102323.00;;;;5068697;28;20202;-78
2021/08/23 10:24:43;;;;;;;1.88;1.00;;;;;27.80;102315.00;;;;5069124;28;20249;-78
2021/08/23 10:27:21;;;;;;;1.83;0.80;;;;;27.80;102317.00;;;;5068287;28;20210;-78
2021/08/23 10:29:50;;;;;;;1.70;0.90;;;;;27.80;102325.00;;;;5067339;28;20603;-78
2021/08/23 10:32:17;;;;;;;3.78;0.88;;;;;27.90;102318.00;;;;5068583;28;20206;-78
2021/08/23 10:34:45;;;;;;;2.15;1.20;;;;;27.90;102332.00;;;;5068672;28;20202;-78
2021/08/23 10:37:23;;;;;;;1.20;0.77;;;;;27.80;102336.00;;;;5068395;28;20490;-78
2021/08/23 10:40:00;;;;;;;2.58;0.80;;;;;27.70;102334.00;;;;5068024;28;20206;-78
2021/08/23 10:42:38;;;;;;;1.25;0.80;;;;;27.70;102329.00;;;;5068599;28;20222;-78
2021/08/23 10:45:07;;;;;;;2.42;0.90;;;;;27.70;102333.00;;;;5067729;28;20238;-78
2021/08/23 10:47:34;;;;;;;1.45;0.80;;;;;27.70;102336.00;;;;5068024;28;20206;-78
2021/08/23 10:50:02;;;;;;;1.88;0.82;;;;;27.70;102331.00;;;;5068366;28;20207;-78
2021/08/23 10:52:35;;;;;;;1.48;0.80;;;;;27.70;102321.00;;;;5068331;28;20571;-78
2021/08/23 10:55:03;;;;;;;4.20;1.10;;;;;27.80;102323.00;;;;5068347;28;20203;-78
2021/08/23 10:57:30;;;;;;;3.90;1.23;;;;;27.90;102322.00;;;;5068306;28;20210;-78
2021/08/23 11:00:10;;;;;;;1.05;0.82;;;;;27.80;102332.00;;;;5067612;28;20586;-78
2021/08/23 11:02:38;;;;;;;1.30;0.98;;;;;27.80;102324.00;;;;5062757;28;20200;-79
2021/08/23 11:05:09;;;;;;;2.15;0.98;;;;;27.80;102321.00;;;;5048351;28;20232;-78
2021/08/23 11:07:40;;;;;;;1.50;0.93;;;;;27.90;102322.00;;;;5048622;28;20203;-78
2021/08/23 11:10:10;;;;;;;5.78;1.00;;;;;28.00;102317.00;;;;5048557;28;20315;-79
2021/08/23 11:12:46;;;;;;;2.28;1.10;;;;;28.00;102322.00;;;;5052004;28;20652;-78
2021/08/23 11:15:17;;;;;;;2.47;1.58;;;;;28.10;102321.00;;;;5051049;28;20246;-77
2021/08/23 11:17:47;;;;;;;1.27;0.80;;;;;28.20;102320.00;;;;5052127;28;20203;-78
2021/08/23 11:20:19;;;;;;;2.60;1.20;;;;;28.20;102321.00;;;;5061775;28;20210;-77
2021/08/23 11:22:53;;;;;;;2.88;1.15;;;;;28.20;102326.00;;;;5071829;28;20199;-78
2021/08/23 11:25:30;;;;;;;1.63;1.05;;;;;28.30;102325.00;;;;5071733;28;20226;-79
2021/08/23 11:27:58;;;;;;;4.47;1.45;;;;;28.30;102324.00;;;;5071358;28;20198;-78
2021/08/23 11:30:30;;;;;;;1.60;1.10;;;;;28.30;102319.00;;;;5071579;28;20203;-77
2021/08/23 11:32:58;;;;;;;2.15;1.35;;;;;28.30;102315.00;;;;5071806;28;20202;-78
2021/08/23 11:35:26;;;;;;;1.55;0.75;;;;;28.30;102324.00;;;;5071721;28;20195;-78
2021/08/23 11:37:58;;;;;;;3.10;1.10;;;;;28.20;102314.00;;;;5070238;28;20689;-78
2021/08/23 11:40:26;;;;;;;1.40;0.90;;;;;28.30;102317.00;;;;5071539;28;20214;-77
2021/08/23 11:42:55;;;;;;;1.30;0.68;;;;;28.30;102316.00;;;;5071725;28;20209;-78
2021/08/23 11:45:24;;;;;;;1.83;1.05;;;;;28.40;102314.00;;;;5071032;28;20234;-78
2021/08/23 11:47:52;;;;;;;1.70;0.95;;;;;28.40;102319.00;;;;5071124;28;20210;-79
2021/08/23 11:50:20;;;;;;;2.38;0.93;;;;;28.40;102313.00;;;;5070658;28;20199;-79
2021/08/23 11:52:48;;;;;;;1.45;1.02;;;;;28.50;102310.00;;;;5071254;28;20214;-77
2021/08/23 11:55:26;;;;;;;2.42;1.02;;;;;28.40;102321.00;;;;5070215;28;20585;-78
2021/08/23 11:58:02;;;;;;;2.60;1.15;;;;;28.40;102310.00;;;;5071187;28;20673;-77
2021/08/23 12:00:30;;;;;;;1.48;0.85;;;;;28.50;102313.00;;;;5070532;28;20203;-78
2021/08/23 12:03:07;;;;;;;3.92;0.80;;;;;28.40;102311.00;;;;5062077;28;20218;-78
2021/08/23 12:05:36;;;;;;;1.42;0.90;;;;;28.50;102311.00;;;;5050993;28;20696;-78
2021/08/23 12:08:04;;;;;;;3.08;1.13;;;;;28.60;102320.00;;;;5055292;28;20211;-76
2021/08/23 12:10:35;;;;;;;3.42;1.15;;;;;28.50;102314.00;;;;5062593;28;20214;-78
2021/08/23 12:13:14;;;;;;;1.40;0.88;;;;;28.50;102313.00;;;;5051274;28;20573;-78
2021/08/23 12:15:56;;;;;;;2.88;1.10;;;;;28.50;102312.00;;;;5051219;28;20200;-78